Airfield :
LOGIN :

Register | Disclaimer

   EN    FR    IT 

 










Legend :    VFR   Marginal VFR   IFR   Intensive IFR   Very Intensive IFR
Visi :
Ceiling :
>= 8 km
>= 3000ft
5 to 8 km
1000 to 3000 ft
1500m to 5 km
500 to 1000 ft
800 to 1500m
200 to 500 ft
< 800m
< 200 ft
Symbols :   Thunderstorms  Fog  Heavy snow  Heavy precipitations  Wind > 20 kt
SIGMETs :     Misc.  Thunderstorms  Icing  Turbulence  Mountain Waves  Volcanic Ashes






- Airport Elevation : 26 ft
- IATA code : SYY


EGPO - Stornoway

CURRENT METAR :
  • 260120Z AUTO 18028G39KT 9999 -RA BKN009/// OVC019/// 08/07 Q0994

EXPIRED METARs :
  • 260050Z AUTO 18029G39KT 9999 -RA BKN010/// 08/07 Q0994
  • 260020Z AUTO 18030G44KT 9999 -RA OVC010/// 08/07 Q0995
  • 252350Z AUTO 18029KT 9999 -RA BKN009/// OVC019/// 08/07 Q0995
  • 252320Z AUTO 19030KT 9999 -RA BKN009/// OVC021/// 08/07 Q0996

TAF TAF EGPO
Valid from the 26 at 00:00 until the 26 at 09:00 UTC


252254Z 2600/2609 19027KT 7000 -RA BKN006
TEMPO 2600/2605 9999 NSW SCT006 BKN016
TEMPO 2600/2604 20030G42KT
PROB30
TEMPO 2600/2605 3000 RADZ BKN003
BECMG 2604/2606 23015KT
TEMPO 2604/2609 24018G28KT
BECMG 2605/2608 9999 NSW SCT020
PROB40
TEMPO 2605/2608 SHRA
TEMPO 2608/2609 6000 SHRA BKN014
ATIS : +44 1851 707 444



MET'MAP, your aeronautical weather chart ! - Copyright ORBIFLY December 2007 - Disclaimer

ORBIFLY MET'MAP TEAM :

Programming & Development : Alexandra Zaïnal
Concept & original design : Baudouin d'Aumeries
Assistance for programming : Marc-Olivier Méhu
Technical & hardware support : Manuel Goepfert

Contact : metmap@orbifly.com




SOURCES & CREDITS :

   NOAA